Baltic Betina — 9HDW8 — position and weather

sailwx.info

Track history (hours):
 
Tides and Currents Weather Stations Pressure Air Temp Water Temp Dewpoint Dewpoint Depression Visibility Wind Speed Wind Dir Waves Ship Positions

Baltic Betina

Last reported at 2015-Feb-28 02:27 UTC. Time now 2015-Mar-01 06:50 UTC.
Position N 55°17' E 009°50'.

Length 89 m; draft 5.1 m.

Type: Ship. MMSI: 215869000.

Date/timePositionNaut miles runAvg speedWind from/ knotsBaromVisibWave heightAir tempDewpointWater temp
2015-Feb-28 02:27N 55°17' E 009°50'910.0
2015-Feb-28 01:33N 55°08' E 009°54'1211.9
2015-Feb-28 00:33N 54°59' E 010°07'1212.0
2015-Feb-27 23:33N 54°50' E 010°21'1612.0
2015-Feb-27 22:13N 54°40' E 010°43'811.9
2015-Feb-27 21:33N 54°38' E 010°57'1212.2
2015-Feb-27 20:33N 54°35' E 011°17'1211.7
2015-Feb-27 19:33N 54°30' E 011°35'1211.7
2015-Feb-27 18:33N 54°28' E 011°55'1010.2
2015-Feb-27 17:34N 54°31' E 012°12'1211.7
2015-Feb-27 16:32N 54°40' E 012°23'1211.8
2015-Feb-27 15:32N 54°47' E 012°40'1411.7
2015-Feb-27 14:21N 54°52' E 013°03'911.6
2015-Feb-27 13:33N 54°55' E 013°18'1211.6
2015-Feb-27 12:33N 54°58' E 013°37'1211.6
2015-Feb-27 11:34N 55°02' E 013°56'1111.5
2015-Feb-27 10:33N 55°09' E 014°13'1211.7
2015-Feb-27 09:33N 55°18' E 014°26'1211.5
2015-Feb-27 08:33N 55°26' E 014°40'1211.8
2015-Feb-27 07:33N 55°32' E 014°57'1211.5
2015-Feb-27 06:32N 55°38' E 015°15'10310.3
2015-Feb-26 20:33N 56°59' E 017°09'1110.8
2015-Feb-26 19:30N 57°09' E 017°18'1111.0
2015-Feb-26 18:30N 57°18' E 017°29'1111.3
2015-Feb-26 17:29N 57°28' E 017°41'17011.4
2015-Feb-26 02:33N 59°38' E 021°12'1110.7
2015-Feb-26 01:33N 59°48' E 021°21'1110.9
2015-Feb-26 00:33N 59°55' E 021°37'1 0.0
2015-Feb-24 08:33N 59°54' E 021°35'1111.2
2015-Feb-24 07:33N 59°46' E 021°21'1211.7
2015-Feb-24 06:33N 59°36' E 021°09'29311.2
2015-Feb-23 04:25N 55°42' E 015°38'1111.8
2015-Feb-23 03:30N 55°37' E 015°21'1212.2
2015-Feb-23 02:33N 55°31' E 015°03'1212.2
2015-Feb-23 01:33N 55°25' E 014°45'1212.0
2015-Feb-23 00:33N 55°17' E 014°29'1111.2
2015-Feb-22 23:33N 55°11' E 014°13'1211.6
2015-Feb-22 22:33N 55°12' E 013°52'1211.6
2015-Feb-22 21:33N 55°13' E 013°32'1211.7
2015-Feb-22 20:33N 55°14' E 013°12'1211.9
2015-Feb-22 19:33N 55°15' E 012°51'9 9.4
2015-Feb-22 18:33N 55°22' E 012°39'1110.7
2015-Feb-22 17:33N 55°33' E 012°42'1110.7
2015-Feb-22 16:33N 55°43' E 012°41'1111.1
2015-Feb-22 15:33N 55°54' E 012°38'1110.6
2015-Feb-22 14:33N 56°05' E 012°35'1211.8
2015-Feb-22 13:33N 56°10' E 012°16'1211.6
2015-Feb-22 12:30N 56°04' E 011°57'5 0.2
2015-Feb-21 05:22N 56°00' E 011°50'78 8.7
2015-Feb-20 20:28N 57°09' E 010°43'8 8.5
2015-Feb-20 19:33N 57°16' E 010°42'8 8.3
2015-Feb-20 18:33N 57°25' E 010°43'11 9.1
2015-Feb-20 17:19N 57°36' E 010°44'911.5
2015-Feb-20 16:30N 57°45' E 010°44'13612.4
2015-Feb-20 05:32N 58°06' E 006°30'1111.4
2015-Feb-20 04:33N 58°13' E 006°14'1111.3
2015-Feb-20 03:33N 58°21' E 005°58'1211.8
2015-Feb-20 02:33N 58°29' E 005°42'1111.3
2015-Feb-20 01:33N 58°39' E 005°30'10 9.6
2015-Feb-20 00:33N 58°48' E 005°25'10 9.9
2015-Feb-19 23:33N 58°57' E 005°33'1110.6
2015-Feb-19 22:33N 59°07' E 005°26'1110.1
2015-Feb-19 21:31N 59°17' E 005°20'2 1.8
2015-Feb-19 20:33N 59°19' E 005°20'0 0.0
2015-Feb-19 19:33N 59°19' E 005°20'0 0.0
2015-Feb-19 18:33N 59°19' E 005°20'0 0.0
2015-Feb-19 17:33N 59°19' E 005°20'1 0.9
2015-Feb-19 16:34N 59°20' E 005°19'1010.2
2015-Feb-19 15:33N 59°29' E 005°12'1 0.0
2015-Feb-18 14:09N 59°30' E 005°13'711.3
2015-Feb-18 13:33N 59°23' E 005°17'1111.0
2015-Feb-18 12:33N 59°13' E 005°21'1010.2
2015-Feb-18 11:33N 59°05' E 005°34'9 9.3
2015-Feb-18 10:33N 58°59' E 005°48'8 7.9
2015-Feb-18 09:33N 58°51' E 005°45'0 0.0
2015-Feb-18 08:33N 58°51' E 005°45'0 0.0
2015-Feb-18 07:33N 58°51' E 005°45'7 7.0
2015-Feb-18 06:34N 58°58' E 005°48'8 8.1
2015-Feb-18 05:33N 59°01' E 005°33'1212.4
2015-Feb-18 04:34N 58°49' E 005°28'1311.4
2015-Feb-18 03:28N 58°37' E 005°32'1010.6
2015-Feb-18 02:33N 58°28' E 005°41'  
Track history (hours):
 
Tides and Currents Weather Stations Pressure Air Temp Water Temp Dewpoint Dewpoint Depression Visibility Wind Speed Wind Dir Waves Ship Positions

Baltic Betina

Last reported at 2015-Feb-28 02:27 UTC. Time now 2015-Mar-01 06:50 UTC.
Position N 55°17' E 009°50'.

Length 89 m; draft 5.1 m.

Type: Ship. MMSI: 215869000.

Date/timePositionNaut miles runAvg speedWind from/ knotsBaromVisibWave heightAir tempDewpointWater temp
2015-Feb-28 02:27N 55°17' E 009°50'910.0
2015-Feb-28 01:33N 55°08' E 009°54'1211.9
2015-Feb-28 00:33N 54°59' E 010°07'1212.0
2015-Feb-27 23:33N 54°50' E 010°21'1612.0
2015-Feb-27 22:13N 54°40' E 010°43'811.9
2015-Feb-27 21:33N 54°38' E 010°57'1212.2
2015-Feb-27 20:33N 54°35' E 011°17'1211.7
2015-Feb-27 19:33N 54°30' E 011°35'1211.7
2015-Feb-27 18:33N 54°28' E 011°55'1010.2
2015-Feb-27 17:34N 54°31' E 012°12'1211.7
2015-Feb-27 16:32N 54°40' E 012°23'1211.8
2015-Feb-27 15:32N 54°47' E 012°40'1411.7
2015-Feb-27 14:21N 54°52' E 013°03'911.6
2015-Feb-27 13:33N 54°55' E 013°18'1211.6
2015-Feb-27 12:33N 54°58' E 013°37'1211.6
2015-Feb-27 11:34N 55°02' E 013°56'1111.5
2015-Feb-27 10:33N 55°09' E 014°13'1211.7
2015-Feb-27 09:33N 55°18' E 014°26'1211.5
2015-Feb-27 08:33N 55°26' E 014°40'1211.8
2015-Feb-27 07:33N 55°32' E 014°57'1211.5
2015-Feb-27 06:32N 55°38' E 015°15'10310.3
2015-Feb-26 20:33N 56°59' E 017°09'1110.8
2015-Feb-26 19:30N 57°09' E 017°18'1111.0
2015-Feb-26 18:30N 57°18' E 017°29'1111.3
2015-Feb-26 17:29N 57°28' E 017°41'17011.4
2015-Feb-26 02:33N 59°38' E 021°12'1110.7
2015-Feb-26 01:33N 59°48' E 021°21'1110.9
2015-Feb-26 00:33N 59°55' E 021°37'1 0.0
2015-Feb-24 08:33N 59°54' E 021°35'1111.2
2015-Feb-24 07:33N 59°46' E 021°21'1211.7
2015-Feb-24 06:33N 59°36' E 021°09'29311.2
2015-Feb-23 04:25N 55°42' E 015°38'1111.8
2015-Feb-23 03:30N 55°37' E 015°21'1212.2
2015-Feb-23 02:33N 55°31' E 015°03'1212.2
2015-Feb-23 01:33N 55°25' E 014°45'1212.0
2015-Feb-23 00:33N 55°17' E 014°29'1111.2
2015-Feb-22 23:33N 55°11' E 014°13'1211.6
2015-Feb-22 22:33N 55°12' E 013°52'1211.6
2015-Feb-22 21:33N 55°13' E 013°32'1211.7
2015-Feb-22 20:33N 55°14' E 013°12'1211.9
2015-Feb-22 19:33N 55°15' E 012°51'9 9.4
2015-Feb-22 18:33N 55°22' E 012°39'1110.7
2015-Feb-22 17:33N 55°33' E 012°42'1110.7
2015-Feb-22 16:33N 55°43' E 012°41'1111.1
2015-Feb-22 15:33N 55°54' E 012°38'1110.6
2015-Feb-22 14:33N 56°05' E 012°35'1211.8
2015-Feb-22 13:33N 56°10' E 012°16'1211.6
2015-Feb-22 12:30N 56°04' E 011°57'5 0.2
2015-Feb-21 05:22N 56°00' E 011°50'78 8.7
2015-Feb-20 20:28N 57°09' E 010°43'8 8.5
2015-Feb-20 19:33N 57°16' E 010°42'8 8.3
2015-Feb-20 18:33N 57°25' E 010°43'11 9.1
2015-Feb-20 17:19N 57°36' E 010°44'911.5
2015-Feb-20 16:30N 57°45' E 010°44'13612.4
2015-Feb-20 05:32N 58°06' E 006°30'1111.4
2015-Feb-20 04:33N 58°13' E 006°14'1111.3
2015-Feb-20 03:33N 58°21' E 005°58'1211.8
2015-Feb-20 02:33N 58°29' E 005°42'1111.3
2015-Feb-20 01:33N 58°39' E 005°30'10 9.6
2015-Feb-20 00:33N 58°48' E 005°25'10 9.9
2015-Feb-19 23:33N 58°57' E 005°33'1110.6
2015-Feb-19 22:33N 59°07' E 005°26'1110.1
2015-Feb-19 21:31N 59°17' E 005°20'2 1.8
2015-Feb-19 20:33N 59°19' E 005°20'0 0.0
2015-Feb-19 19:33N 59°19' E 005°20'0 0.0
2015-Feb-19 18:33N 59°19' E 005°20'0 0.0
2015-Feb-19 17:33N 59°19' E 005°20'1 0.9
2015-Feb-19 16:34N 59°20' E 005°19'1010.2
2015-Feb-19 15:33N 59°29' E 005°12'1 0.0
2015-Feb-18 14:09N 59°30' E 005°13'711.3
2015-Feb-18 13:33N 59°23' E 005°17'1111.0
2015-Feb-18 12:33N 59°13' E 005°21'1010.2
2015-Feb-18 11:33N 59°05' E 005°34'9 9.3
2015-Feb-18 10:33N 58°59' E 005°48'8 7.9
2015-Feb-18 09:33N 58°51' E 005°45'0 0.0
2015-Feb-18 08:33N 58°51' E 005°45'0 0.0
2015-Feb-18 07:33N 58°51' E 005°45'7 7.0
2015-Feb-18 06:34N 58°58' E 005°48'8 8.1
2015-Feb-18 05:33N 59°01' E 005°33'1212.4
2015-Feb-18 04:34N 58°49' E 005°28'1311.4
2015-Feb-18 03:28N 58°37' E 005°32'1010.6
2015-Feb-18 02:33N 58°28' E 005°41'  

Dump ship's entire track history